createdAt,value
2022-11-10T00:02:10.150Z,11.56
2022-11-10T00:04:37.879Z,11.67
2022-11-10T00:07:05.758Z,11.74
2022-11-10T00:09:35.047Z,11.74
2022-11-10T00:12:02.892Z,11.83
2022-11-10T00:14:48.275Z,11.96
2022-11-10T00:17:16.025Z,11.98
2022-11-10T00:19:43.710Z,11.83
2022-11-10T00:22:11.453Z,11.81
2022-11-10T00:24:40.520Z,11.95
2022-11-10T00:27:08.186Z,11.85
2022-11-10T00:29:36.172Z,11.94
2022-11-10T00:32:03.863Z,11.70
2022-11-10T00:34:31.659Z,11.79
2022-11-10T00:36:59.444Z,11.73
2022-11-10T00:39:27.229Z,11.83
2022-11-10T00:41:56.748Z,11.94
2022-11-10T00:44:24.693Z,12.05
2022-11-10T00:46:52.545Z,12.12
2022-11-10T00:49:20.352Z,11.97
2022-11-10T00:51:48.076Z,11.83
2022-11-10T00:54:15.886Z,11.79
2022-11-10T00:56:43.596Z,11.75
2022-11-10T00:59:12.668Z,11.48
2022-11-10T01:01:40.749Z,11.34
2022-11-10T01:04:08.872Z,11.42
2022-11-10T01:06:36.609Z,11.30
2022-11-10T01:09:04.547Z,11.36
2022-11-10T01:11:32.217Z,11.54
2022-11-10T01:13:59.914Z,11.57
2022-11-10T01:16:33.228Z,11.57
2022-11-10T01:19:03.318Z,11.62
2022-11-10T01:21:31.900Z,11.73
2022-11-10T01:23:59.729Z,11.60
2022-11-10T01:26:27.586Z,11.69
2022-11-10T01:28:55.279Z,11.81
2022-11-10T01:31:23.811Z,11.81
2022-11-10T01:33:52.952Z,11.68
2022-11-10T01:36:20.653Z,11.63
2022-11-10T01:38:48.435Z,11.61
2022-11-10T01:41:16.543Z,11.62
2022-11-10T01:43:44.673Z,11.62
2022-11-10T01:46:14.172Z,11.67
2022-11-10T01:48:46.125Z,11.49
2022-11-10T01:51:20.110Z,11.39
2022-11-10T01:53:51.689Z,11.43
2022-11-10T01:56:20.217Z,11.41
2022-11-10T01:58:51.612Z,10.94
2022-11-10T02:01:19.671Z,11.15
2022-11-10T02:03:51.157Z,11.19
2022-11-10T02:06:23.699Z,11.48
2022-11-10T02:08:52.353Z,11.50
2022-11-10T02:11:20.336Z,11.38
2022-11-10T02:13:48.553Z,11.51
2022-11-10T02:16:16.549Z,11.62
2022-11-10T02:18:44.301Z,11.50
2022-11-10T02:21:17.777Z,11.51
2022-11-10T02:23:46.726Z,11.38
2022-11-10T02:26:17.223Z,11.34
2022-11-10T02:28:44.925Z,11.24
2022-11-10T02:31:12.888Z,11.29
2022-11-10T02:33:40.705Z,11.32
2022-11-10T02:36:09.260Z,11.36
2022-11-10T02:38:38.502Z,11.33
2022-11-10T02:41:06.585Z,11.45
2022-11-10T02:43:34.833Z,11.34
2022-11-10T02:46:10.978Z,11.39
2022-11-10T02:48:38.789Z,11.18
2022-11-10T02:51:06.608Z,11.07
2022-11-10T02:53:34.311Z,11.28
2022-11-10T02:56:03.370Z,11.27
2022-11-10T02:58:31.066Z,11.42
2022-11-10T03:00:58.939Z,11.34
2022-11-10T03:03:27.267Z,11.51
2022-11-10T03:05:55.048Z,11.59
2022-11-10T03:08:22.744Z,11.36
2022-11-10T03:10:54.836Z,11.40
2022-11-10T03:13:24.372Z,11.37
2022-11-10T03:15:52.677Z,11.14
2022-11-10T03:18:20.556Z,11.29
2022-11-10T03:20:49.965Z,11.29
2022-11-10T03:23:18.856Z,11.30
2022-11-10T03:25:47.065Z,11.35
2022-11-10T03:28:14.916Z,11.29
2022-11-10T03:30:44.549Z,11.22
2022-11-10T03:33:12.432Z,11.12
2022-11-10T03:35:40.140Z,11.08
2022-11-10T03:38:07.914Z,11.12
2022-11-10T03:40:50.896Z,11.11
2022-11-10T03:43:23.719Z,11.05
2022-11-10T03:45:53.052Z,11.00
2022-11-10T03:48:20.712Z,10.95
2022-11-10T03:50:48.403Z,10.91
2022-11-10T03:53:16.155Z,11.16
2022-11-10T03:55:43.848Z,11.11
2022-11-10T03:58:11.610Z,11.06
2022-11-10T04:00:39.393Z,11.14
2022-11-10T04:03:08.769Z,11.14
2022-11-10T04:05:54.318Z,11.14
2022-11-10T04:08:39.631Z,11.22
2022-11-10T04:11:07.390Z,11.11
2022-11-10T04:13:52.818Z,10.96
2022-11-10T04:16:20.600Z,10.99
2022-11-10T04:18:49.657Z,10.97
2022-11-10T04:21:17.394Z,11.04
2022-11-10T04:23:45.102Z,11.10
2022-11-10T04:26:29.966Z,11.04
2022-11-10T04:28:59.956Z,11.07
2022-11-10T04:31:29.498Z,11.04
2022-11-10T04:33:59.729Z,11.02
2022-11-10T04:36:28.924Z,11.11
2022-11-10T04:38:57.138Z,11.07
2022-11-10T04:41:26.394Z,11.07
2022-11-10T04:43:54.161Z,11.07
2022-11-10T04:46:24.343Z,10.97
2022-11-10T04:48:52.599Z,11.02
2022-11-10T04:51:23.348Z,10.95
2022-11-10T04:53:51.164Z,11.08
2022-11-10T04:56:20.140Z,11.09
2022-11-10T04:58:48.597Z,11.16
2022-11-10T05:01:19.096Z,11.02
2022-11-10T05:03:47.443Z,10.87
2022-11-10T05:06:15.761Z,10.77
2022-11-10T05:08:45.799Z,10.79
2022-11-10T05:11:13.805Z,10.84
2022-11-10T05:13:41.806Z,10.79
2022-11-10T05:16:09.649Z,10.79
2022-11-10T05:18:37.811Z,10.84
2022-11-10T05:21:05.596Z,10.81
2022-11-10T05:23:39.293Z,10.56
2022-11-10T05:26:10.888Z,10.57
2022-11-10T05:28:38.658Z,10.41
2022-11-10T05:31:07.119Z,10.62
2022-11-10T05:33:35.316Z,10.59
2022-11-10T05:36:05.614Z,10.53
2022-11-10T05:38:33.396Z,10.54
2022-11-10T05:41:01.177Z,10.52
2022-11-10T05:43:30.224Z,10.58
2022-11-10T05:45:57.988Z,10.61
2022-11-10T05:48:25.672Z,10.56
2022-11-10T05:50:53.426Z,10.57
2022-11-10T05:53:21.639Z,10.49
2022-11-10T05:55:49.624Z,10.57
2022-11-10T05:58:17.371Z,10.55
2022-11-10T06:00:46.493Z,10.51
2022-11-10T06:03:16.437Z,10.49
2022-11-10T06:05:44.584Z,10.61
2022-11-10T06:08:12.569Z,10.62
2022-11-10T06:10:41.125Z,10.63
2022-11-10T06:13:08.916Z,10.44
2022-11-10T06:15:36.621Z,10.34
2022-11-10T06:18:06.019Z,10.39
2022-11-10T06:20:33.909Z,10.36
2022-11-10T06:23:03.225Z,10.11
2022-11-10T06:25:31.963Z,10.27
2022-11-10T06:27:59.976Z,10.33
2022-11-10T06:30:29.421Z,10.37
2022-11-10T06:32:57.485Z,10.32
2022-11-10T06:35:27.813Z,10.35
2022-11-10T06:38:00.049Z,10.24
2022-11-10T06:40:28.122Z,10.39
2022-11-10T06:42:56.293Z,10.31
2022-11-10T06:45:24.940Z,10.25
2022-11-10T06:48:00.843Z,10.28
2022-11-10T06:50:32.272Z,10.39
2022-11-10T06:53:01.155Z,10.43
2022-11-10T06:55:29.421Z,10.41
2022-11-10T06:57:57.753Z,10.58
2022-11-10T07:00:26.231Z,10.57
2022-11-10T07:03:00.650Z,10.46
2022-11-10T07:05:30.095Z,10.47
2022-11-10T07:08:02.316Z,10.59
2022-11-10T07:10:30.019Z,10.47
2022-11-10T07:12:58.714Z,10.48
2022-11-10T07:15:26.470Z,10.54
2022-11-10T07:17:54.178Z,10.48
2022-11-10T07:20:22.013Z,10.61
2022-11-10T07:22:51.138Z,10.69
2022-11-10T07:25:18.825Z,10.75
2022-11-10T07:27:46.626Z,10.71
2022-11-10T07:30:15.061Z,10.81
2022-11-10T07:32:42.732Z,11.02
2022-11-10T07:35:10.413Z,11.07
2022-11-10T07:37:38.171Z,11.12
2022-11-10T07:40:08.761Z,11.23
2022-11-10T07:42:41.085Z,11.23
2022-11-10T07:45:10.173Z,11.05
2022-11-10T07:47:37.907Z,11.33
2022-11-10T07:50:06.517Z,11.37
2022-11-10T07:52:34.597Z,11.56
2022-11-10T07:55:02.357Z,11.58
2022-11-10T07:57:31.429Z,11.78
2022-11-10T07:59:59.210Z,11.82
2022-11-10T08:02:27.104Z,11.90
2022-11-10T08:04:54.811Z,11.90
2022-11-10T08:07:22.653Z,12.02
2022-11-10T08:09:50.571Z,12.22
2022-11-10T08:12:18.301Z,12.24
2022-11-10T08:14:47.372Z,12.38
2022-11-10T08:17:15.082Z,12.41
2022-11-10T08:19:42.826Z,12.45
2022-11-10T08:22:10.527Z,12.42
2022-11-10T08:24:38.299Z,12.59
2022-11-10T08:27:06.301Z,12.58
2022-11-10T08:29:33.977Z,12.77
2022-11-10T08:32:03.066Z,12.93
2022-11-10T08:34:30.756Z,13.03
2022-11-10T08:36:58.462Z,13.17
2022-11-10T08:39:38.658Z,13.18
2022-11-10T08:42:07.332Z,13.28
2022-11-10T08:44:35.126Z,13.25
2022-11-10T08:47:04.310Z,13.23
2022-11-10T08:49:32.045Z,13.46
2022-11-10T08:51:59.708Z,13.61
2022-11-10T08:54:27.463Z,13.79
2022-11-10T08:56:55.624Z,13.71
2022-11-10T08:59:23.309Z,13.85
2022-11-10T09:01:51.020Z,13.94
2022-11-10T09:04:20.211Z,13.92
2022-11-10T09:06:48.052Z,14.09
2022-11-10T09:09:15.901Z,14.20
2022-11-10T09:11:43.637Z,14.43
2022-11-10T09:14:11.460Z,14.57
2022-11-10T09:16:39.147Z,14.62
2022-11-10T09:19:06.876Z,14.73
2022-11-10T09:21:37.016Z,14.80
2022-11-10T09:24:05.126Z,15.02
2022-11-10T09:26:33.804Z,14.81
2022-11-10T09:29:01.572Z,15.02
2022-11-10T09:31:29.325Z,15.19
2022-11-10T09:33:57.070Z,15.44
2022-11-10T09:36:24.780Z,15.54
2022-11-10T09:38:54.058Z,15.68
2022-11-10T09:41:21.996Z,15.60
2022-11-10T09:43:59.420Z,15.83
2022-11-10T09:46:30.624Z,15.94
2022-11-10T09:49:04.816Z,16.12
2022-11-10T09:51:37.049Z,16.15
2022-11-10T09:54:15.326Z,16.30
2022-11-10T09:56:43.090Z,16.50
2022-11-10T09:59:17.532Z,16.68
2022-11-10T10:01:50.024Z,16.82
2022-11-10T10:04:52.414Z,16.79
2022-11-10T10:07:26.101Z,16.84
2022-11-10T10:10:03.519Z,17.06
2022-11-10T10:12:53.388Z,17.15
2022-11-10T10:15:30.941Z,17.18
2022-11-10T10:18:18.435Z,17.17
2022-11-10T10:20:57.293Z,17.34
2022-11-10T10:23:53.904Z,17.34
2022-11-10T10:26:24.474Z,17.54
2022-11-10T10:28:53.143Z,17.46
2022-11-10T10:31:24.292Z,17.52
2022-11-10T10:33:53.234Z,17.62
2022-11-10T10:36:24.800Z,17.20
2022-11-10T10:38:55.887Z,16.90
2022-11-10T10:41:27.396Z,17.67
2022-11-10T10:43:58.036Z,17.55
2022-11-10T10:46:32.891Z,17.84
2022-11-10T10:49:28.094Z,17.70
2022-11-10T10:52:05.498Z,18.07
2022-11-10T10:54:35.378Z,18.27
2022-11-10T10:57:07.388Z,18.21
2022-11-10T10:59:35.565Z,18.32
2022-11-10T11:02:03.229Z,18.28
2022-11-10T11:04:34.094Z,18.29
2022-11-10T11:07:03.669Z,18.41
2022-11-10T11:09:40.617Z,18.31
2022-11-10T11:12:13.454Z,18.24
2022-11-10T11:14:45.754Z,18.60
2022-11-10T11:17:15.732Z,18.52
2022-11-10T11:19:43.492Z,18.75
2022-11-10T11:22:46.933Z,18.92
2022-11-10T11:25:23.697Z,19.23
2022-11-10T11:28:03.679Z,19.13
2022-11-10T11:30:47.871Z,19.31
2022-11-10T11:33:34.456Z,19.31
2022-11-10T11:36:10.360Z,18.94
2022-11-10T11:38:51.703Z,19.10
2022-11-10T11:41:26.421Z,18.69
2022-11-10T11:44:19.045Z,18.85
2022-11-10T11:46:54.256Z,18.93
2022-11-10T11:49:39.441Z,19.00
2022-11-10T11:52:14.431Z,18.71
2022-11-10T11:55:04.547Z,18.80
2022-11-10T11:57:41.036Z,18.43
2022-11-10T12:00:14.160Z,18.60
2022-11-10T12:02:52.764Z,18.51
2022-11-10T12:05:36.591Z,18.92
2022-11-10T12:08:16.108Z,19.17
2022-11-10T12:10:55.985Z,19.38
2022-11-10T12:13:37.888Z,19.26
2022-11-10T12:16:16.328Z,19.31
2022-11-10T12:18:51.046Z,19.50
2022-11-10T12:21:28.064Z,19.63
2022-11-10T12:24:10.376Z,19.88
2022-11-10T12:26:44.675Z,20.09
2022-11-10T12:29:20.153Z,19.59
2022-11-10T12:31:54.631Z,19.77
2022-11-10T12:34:31.842Z,19.49
2022-11-10T12:37:02.805Z,19.87
2022-11-10T12:39:41.345Z,20.31
2022-11-10T12:42:15.424Z,20.26
2022-11-10T12:44:59.498Z,19.78
2022-11-10T12:47:33.104Z,18.82
2022-11-10T12:50:12.136Z,19.92
2022-11-10T12:52:45.624Z,20.17
2022-11-10T12:55:14.824Z,19.98
2022-11-10T12:57:45.034Z,19.73
2022-11-10T13:00:28.204Z,19.53
2022-11-10T13:02:58.863Z,19.60
2022-11-10T13:05:38.704Z,19.61
2022-11-10T13:08:17.610Z,19.32
2022-11-10T13:10:57.515Z,19.29
2022-11-10T13:13:25.762Z,19.35
2022-11-10T13:15:55.701Z,19.29
2022-11-10T13:18:42.190Z,19.53
2022-11-10T13:21:09.982Z,19.67
2022-11-10T13:24:10.892Z,20.14
2022-11-10T13:26:52.625Z,20.42
2022-11-10T13:29:29.496Z,20.22
2022-11-10T13:31:59.005Z,19.78
2022-11-10T13:34:33.662Z,19.74
2022-11-10T13:37:02.343Z,19.77
2022-11-10T13:39:32.491Z,19.61
2022-11-10T13:42:03.979Z,19.57
2022-11-10T13:44:35.096Z,19.37
2022-11-10T13:47:18.381Z,19.23
2022-11-10T13:50:02.959Z,19.40
2022-11-10T13:52:43.980Z,19.23
2022-11-10T13:55:32.676Z,19.56
2022-11-10T13:58:02.849Z,19.60
2022-11-10T14:00:32.331Z,19.94
2022-11-10T14:03:02.011Z,20.03
2022-11-10T14:06:07.354Z,20.12
2022-11-10T14:08:50.494Z,20.35
2022-11-10T14:11:26.467Z,20.17
2022-11-10T14:14:00.130Z,19.98
2022-11-10T14:16:32.006Z,20.21
2022-11-10T14:19:05.391Z,19.93
2022-11-10T14:21:46.461Z,19.91
2022-11-10T14:24:23.276Z,19.74
2022-11-10T14:26:53.425Z,19.41
2022-11-10T14:29:35.783Z,19.29
2022-11-10T14:32:06.668Z,19.41
2022-11-10T14:34:44.326Z,19.73
2022-11-10T14:37:18.725Z,19.96
2022-11-10T14:39:46.690Z,20.10
2022-11-10T14:42:19.605Z,19.97
2022-11-10T14:44:48.617Z,19.98
2022-11-10T14:47:24.864Z,19.99
2022-11-10T14:50:07.261Z,20.05
2022-11-10T14:52:41.104Z,20.07
2022-11-10T14:55:14.670Z,19.90
2022-11-10T14:57:42.890Z,19.82
2022-11-10T15:00:16.011Z,19.87
2022-11-10T15:02:44.387Z,20.06
2022-11-10T15:05:15.948Z,19.98
2022-11-10T15:07:46.772Z,20.10
2022-11-10T15:10:18.495Z,20.09
2022-11-10T15:12:58.540Z,20.04
2022-11-10T15:15:26.367Z,20.02
2022-11-10T15:17:55.266Z,19.60
2022-11-10T15:20:32.512Z,19.81
2022-11-10T15:23:03.514Z,19.75
2022-11-10T15:25:36.906Z,18.84
2022-11-10T15:28:13.569Z,19.03
2022-11-10T15:30:50.380Z,19.24
2022-11-10T15:33:27.452Z,19.03
2022-11-10T15:35:56.756Z,19.11
2022-11-10T15:38:31.602Z,19.03
2022-11-10T15:41:17.020Z,18.91
2022-11-10T15:43:44.799Z,18.71
2022-11-10T15:46:18.198Z,18.62
2022-11-10T15:48:48.500Z,18.57
2022-11-10T15:51:24.508Z,18.39
2022-11-10T15:53:55.450Z,18.71
2022-11-10T15:56:25.615Z,18.66
2022-11-10T15:59:00.586Z,18.68
2022-11-10T16:01:31.383Z,18.82
2022-11-10T16:03:59.353Z,18.83
2022-11-10T16:06:27.471Z,18.71
2022-11-10T16:08:56.521Z,18.81
2022-11-10T16:11:24.677Z,18.73
2022-11-10T16:13:54.029Z,18.68
2022-11-10T16:16:23.890Z,18.63
2022-11-10T16:18:52.175Z,18.61
2022-11-10T16:21:21.545Z,18.53
2022-11-10T16:23:50.567Z,18.51
2022-11-10T16:26:23.202Z,18.49
2022-11-10T16:28:51.640Z,18.43
2022-11-10T16:31:21.862Z,18.37
2022-11-10T16:33:50.437Z,18.27
2022-11-10T16:36:24.718Z,18.21
2022-11-10T16:38:53.027Z,18.20
2022-11-10T16:41:23.525Z,18.20
2022-11-10T16:43:51.370Z,18.15
2022-11-10T16:46:22.876Z,18.03
2022-11-10T16:48:52.099Z,18.01
2022-11-10T16:51:19.865Z,18.00
2022-11-10T16:53:47.797Z,17.93
2022-11-10T16:56:16.999Z,17.91
2022-11-10T16:58:46.020Z,17.90
2022-11-10T17:01:20.171Z,17.81
2022-11-10T17:03:51.212Z,17.85
2022-11-10T17:06:21.531Z,17.83
2022-11-10T17:08:51.176Z,17.76
2022-11-10T17:11:19.192Z,17.64
2022-11-10T17:13:48.236Z,17.56
2022-11-10T17:16:22.695Z,17.53
2022-11-10T17:18:51.816Z,17.41
2022-11-10T17:21:20.220Z,17.42
2022-11-10T17:23:48.050Z,17.25
2022-11-10T17:26:18.491Z,17.14
2022-11-10T17:28:46.261Z,17.01
2022-11-10T17:31:15.785Z,16.99
2022-11-10T17:33:43.491Z,16.95
2022-11-10T17:36:15.389Z,16.92
2022-11-10T17:38:44.012Z,16.91
2022-11-10T17:41:16.610Z,16.87
2022-11-10T17:43:45.975Z,16.74
2022-11-10T17:46:16.083Z,16.70
2022-11-10T17:48:44.295Z,16.59
2022-11-10T17:51:19.414Z,16.55
2022-11-10T17:53:47.308Z,16.43
2022-11-10T17:56:15.255Z,16.32
2022-11-10T17:58:43.103Z,16.26
2022-11-10T18:01:18.464Z,16.11
2022-11-10T18:03:46.488Z,15.97
2022-11-10T18:06:15.029Z,15.89
2022-11-10T18:08:43.269Z,15.81
2022-11-10T18:11:12.574Z,15.81
2022-11-10T18:13:41.625Z,15.74
2022-11-10T18:16:09.980Z,15.71
2022-11-10T18:18:39.372Z,15.68
2022-11-10T18:21:08.044Z,15.63
2022-11-10T18:23:35.855Z,15.62
2022-11-10T18:26:05.383Z,15.59
2022-11-10T18:28:34.040Z,15.57
2022-11-10T18:31:07.693Z,15.59
2022-11-10T18:33:36.803Z,15.53
2022-11-10T18:36:06.317Z,15.53
2022-11-10T18:38:34.110Z,15.45
2022-11-10T18:41:25.535Z,15.36
2022-11-10T18:43:53.578Z,15.40
2022-11-10T18:46:21.316Z,15.36
2022-11-10T18:48:49.127Z,15.34
2022-11-10T18:51:18.374Z,15.32
2022-11-10T18:53:46.045Z,15.19
2022-11-10T18:56:14.371Z,15.23
2022-11-10T18:58:42.208Z,15.25
2022-11-10T19:01:11.258Z,15.28
2022-11-10T19:03:39.067Z,15.35
2022-11-10T19:06:07.148Z,15.36
2022-11-10T19:08:37.097Z,15.34
2022-11-10T19:11:07.421Z,15.47
2022-11-10T19:13:35.330Z,15.46
2022-11-10T19:16:05.369Z,15.45
2022-11-10T19:18:33.135Z,15.48
2022-11-10T19:21:05.560Z,15.60
2022-11-10T19:23:33.376Z,15.59
2022-11-10T19:26:03.018Z,15.69
2022-11-10T19:28:31.029Z,15.68
2022-11-10T19:31:02.275Z,15.63
2022-11-10T19:33:31.206Z,15.61
2022-11-10T19:36:04.290Z,15.59
2022-11-10T19:38:32.280Z,15.59
2022-11-10T19:41:03.735Z,15.64
2022-11-10T19:43:32.883Z,15.79
2022-11-10T19:46:02.784Z,15.78
2022-11-10T19:48:31.455Z,15.82
2022-11-10T19:51:00.561Z,15.87
2022-11-10T19:53:28.610Z,15.84
2022-11-10T19:56:03.389Z,15.80
2022-11-10T19:58:32.505Z,15.83
2022-11-10T20:01:01.945Z,15.74
2022-11-10T20:03:30.207Z,15.69
2022-11-10T20:06:02.982Z,15.67
2022-11-10T20:08:31.040Z,15.67
2022-11-10T20:11:01.293Z,15.68
2022-11-10T20:13:29.076Z,15.58
2022-11-10T20:15:58.257Z,15.55
2022-11-10T20:18:26.110Z,15.44
2022-11-10T20:20:53.779Z,15.47
2022-11-10T20:23:21.729Z,15.45
2022-11-10T20:25:49.539Z,15.29
2022-11-10T20:28:17.459Z,15.37
2022-11-10T20:30:45.450Z,15.48
2022-11-10T20:33:14.563Z,15.57
2022-11-10T20:35:43.840Z,15.53
2022-11-10T20:38:12.208Z,15.69
2022-11-10T20:40:44.742Z,15.77
2022-11-10T20:43:14.699Z,15.64
2022-11-10T20:45:42.589Z,15.83
2022-11-10T20:48:10.320Z,15.93
2022-11-10T20:50:41.672Z,15.84
2022-11-10T20:53:09.388Z,15.89
2022-11-10T20:55:53.267Z,15.86
2022-11-10T20:58:21.468Z,15.86
2022-11-10T21:00:49.161Z,15.74
2022-11-10T21:03:17.000Z,15.84
2022-11-10T21:05:46.084Z,15.76
2022-11-10T21:08:13.785Z,15.77
2022-11-10T21:10:41.604Z,15.83
2022-11-10T21:13:08.307Z,15.82
2022-11-10T21:15:39.128Z,15.83
2022-11-10T21:18:06.888Z,15.79
2022-11-10T21:20:34.998Z,15.71
2022-11-10T21:23:04.087Z,15.75
2022-11-10T21:25:31.865Z,15.76
2022-11-10T21:27:59.784Z,15.72
2022-11-10T21:30:27.555Z,15.69
2022-11-10T21:32:55.296Z,15.73
2022-11-10T21:35:23.483Z,15.69
2022-11-10T21:37:51.174Z,15.63
2022-11-10T21:40:20.520Z,15.53
2022-11-10T21:42:48.257Z,15.44
2022-11-10T21:45:17.862Z,15.53
2022-11-10T21:47:45.568Z,15.42
2022-11-10T21:50:13.371Z,15.38
2022-11-10T21:52:41.062Z,15.37
2022-11-10T21:55:09.937Z,15.38
2022-11-10T21:57:38.964Z,15.39
2022-11-10T22:00:07.868Z,15.30
2022-11-10T22:02:35.649Z,15.18
2022-11-10T22:05:03.380Z,15.20
2022-11-10T22:07:31.090Z,15.11
2022-11-10T22:10:16.509Z,15.13
2022-11-10T22:13:03.249Z,14.95
2022-11-10T22:15:48.578Z,14.97
2022-11-10T22:18:35.361Z,15.23
2022-11-10T22:21:03.332Z,15.23
2022-11-10T22:23:48.387Z,15.15
2022-11-10T22:26:16.213Z,14.99
2022-11-10T22:28:45.802Z,15.10
2022-11-10T22:31:14.139Z,15.10
2022-11-10T22:33:43.296Z,15.05
2022-11-10T22:36:13.348Z,14.94
2022-11-10T22:38:42.636Z,14.78
2022-11-10T22:41:32.576Z,14.80
2022-11-10T22:44:04.983Z,14.84
2022-11-10T22:46:34.451Z,14.79
2022-11-10T22:49:02.708Z,14.64
2022-11-10T22:51:32.149Z,14.68
2022-11-10T22:54:00.402Z,14.77
2022-11-10T22:56:28.650Z,14.66
2022-11-10T22:58:59.864Z,14.52
2022-11-10T23:01:29.546Z,14.54
2022-11-10T23:03:58.969Z,14.54
2022-11-10T23:06:26.786Z,14.50
2022-11-10T23:08:54.871Z,14.54
2022-11-10T23:11:25.403Z,14.48
2022-11-10T23:13:53.213Z,14.44
2022-11-10T23:16:23.276Z,14.14
2022-11-10T23:18:53.519Z,14.09
2022-11-10T23:21:23.377Z,13.90
2022-11-10T23:23:53.412Z,13.92
2022-11-10T23:26:22.513Z,13.87
2022-11-10T23:28:50.444Z,13.82
2022-11-10T23:31:20.024Z,13.75
2022-11-10T23:33:49.703Z,13.59
2022-11-10T23:36:20.495Z,13.62
2022-11-10T23:38:49.046Z,13.59
2022-11-10T23:41:18.896Z,13.58
2022-11-10T23:43:47.453Z,13.38
2022-11-10T23:46:15.162Z,13.33
2022-11-10T23:48:43.670Z,13.20
2022-11-10T23:51:13.810Z,13.20
2022-11-10T23:53:43.097Z,13.13
2022-11-10T23:56:13.187Z,13.03
2022-11-10T23:58:41.322Z,13.02
